sensor_id;sensor_type;location;lat;lon;timestamp;pressure;altitude;pressure_sealevel;temperature
14851;BMP180;7517;48.400;11.770;2023-03-16T00:00:19;96754.00;;;5.70
14851;BMP180;7517;48.400;11.770;2023-03-16T00:02:46;96752.00;;;5.70
14851;BMP180;7517;48.400;11.770;2023-03-16T00:05:14;96754.00;;;5.70
14851;BMP180;7517;48.400;11.770;2023-03-16T00:07:42;96752.00;;;5.70
14851;BMP180;7517;48.400;11.770;2023-03-16T00:10:11;96749.00;;;5.70
14851;BMP180;7517;48.400;11.770;2023-03-16T00:12:40;96749.00;;;5.70
14851;BMP180;7517;48.400;11.770;2023-03-16T00:15:09;96749.00;;;5.70
14851;BMP180;7517;48.400;11.770;2023-03-16T00:17:38;96746.00;;;5.70
14851;BMP180;7517;48.400;11.770;2023-03-16T00:20:06;96747.00;;;5.70
14851;BMP180;7517;48.400;11.770;2023-03-16T00:22:34;96755.00;;;5.60
14851;BMP180;7517;48.400;11.770;2023-03-16T00:25:01;96764.00;;;5.70
14851;BMP180;7517;48.400;11.770;2023-03-16T00:27:29;96756.00;;;5.60
14851;BMP180;7517;48.400;11.770;2023-03-16T00:29:56;96760.00;;;5.60
14851;BMP180;7517;48.400;11.770;2023-03-16T00:32:27;96762.00;;;5.60
14851;BMP180;7517;48.400;11.770;2023-03-16T00:35:08;96756.00;;;5.60
14851;BMP180;7517;48.400;11.770;2023-03-16T00:37:37;96753.00;;;5.60
14851;BMP180;7517;48.400;11.770;2023-03-16T00:40:09;96764.00;;;5.60
14851;BMP180;7517;48.400;11.770;2023-03-16T00:42:38;96758.00;;;5.50
14851;BMP180;7517;48.400;11.770;2023-03-16T00:45:08;96762.00;;;5.50
14851;BMP180;7517;48.400;11.770;2023-03-16T00:47:35;96767.00;;;5.50
14851;BMP180;7517;48.400;11.770;2023-03-16T00:50:05;96760.00;;;5.50
14851;BMP180;7517;48.400;11.770;2023-03-16T00:52:33;96760.00;;;5.50
14851;BMP180;7517;48.400;11.770;2023-03-16T00:55:00;96758.00;;;5.40
14851;BMP180;7517;48.400;11.770;2023-03-16T00:57:29;96756.00;;;5.40
14851;BMP180;7517;48.400;11.770;2023-03-16T00:59:56;96762.00;;;5.40
14851;BMP180;7517;48.400;11.770;2023-03-16T01:02:26;96755.00;;;5.40
14851;BMP180;7517;48.400;11.770;2023-03-16T01:04:54;96759.00;;;5.30
14851;BMP180;7517;48.400;11.770;2023-03-16T01:07:23;96754.00;;;5.30
14851;BMP180;7517;48.400;11.770;2023-03-16T01:09:51;96761.00;;;5.30
14851;BMP180;7517;48.400;11.770;2023-03-16T01:12:19;96762.00;;;5.30
14851;BMP180;7517;48.400;11.770;2023-03-16T01:14:47;96764.00;;;5.30
14851;BMP180;7517;48.400;11.770;2023-03-16T01:17:16;96762.00;;;5.30
14851;BMP180;7517;48.400;11.770;2023-03-16T01:19:45;96759.00;;;5.30
14851;BMP180;7517;48.400;11.770;2023-03-16T01:22:17;96761.00;;;5.30
14851;BMP180;7517;48.400;11.770;2023-03-16T01:24:46;96756.00;;;5.30
14851;BMP180;7517;48.400;11.770;2023-03-16T01:27:14;96756.00;;;5.20
14851;BMP180;7517;48.400;11.770;2023-03-16T01:29:41;96757.00;;;5.20
14851;BMP180;7517;48.400;11.770;2023-03-16T01:32:11;96754.00;;;5.20
14851;BMP180;7517;48.400;11.770;2023-03-16T01:34:38;96757.00;;;5.10
14851;BMP180;7517;48.400;11.770;2023-03-16T01:37:06;96757.00;;;5.10
14851;BMP180;7517;48.400;11.770;2023-03-16T01:39:33;96745.00;;;5.00
14851;BMP180;7517;48.400;11.770;2023-03-16T01:42:02;96747.00;;;5.00
14851;BMP180;7517;48.400;11.770;2023-03-16T01:44:51;96740.00;;;5.00
14851;BMP180;7517;48.400;11.770;2023-03-16T01:47:21;96733.00;;;5.00
14851;BMP180;7517;48.400;11.770;2023-03-16T01:49:55;96739.00;;;4.90
14851;BMP180;7517;48.400;11.770;2023-03-16T01:52:26;96729.00;;;4.90
14851;BMP180;7517;48.400;11.770;2023-03-16T01:55:02;96731.00;;;4.90
14851;BMP180;7517;48.400;11.770;2023-03-16T01:57:35;96725.00;;;4.90
14851;BMP180;7517;48.400;11.770;2023-03-16T02:00:08;96725.00;;;4.90
14851;BMP180;7517;48.400;11.770;2023-03-16T02:02:41;96732.00;;;4.90
14851;BMP180;7517;48.400;11.770;2023-03-16T02:05:19;96730.00;;;4.80
14851;BMP180;7517;48.400;11.770;2023-03-16T02:07:52;96731.00;;;4.80
14851;BMP180;7517;48.400;11.770;2023-03-16T02:10:26;96727.00;;;4.80
14851;BMP180;7517;48.400;11.770;2023-03-16T02:12:55;96725.00;;;4.80
14851;BMP180;7517;48.400;11.770;2023-03-16T02:15:24;96732.00;;;4.80
14851;BMP180;7517;48.400;11.770;2023-03-16T02:17:52;96729.00;;;4.80
14851;BMP180;7517;48.400;11.770;2023-03-16T02:20:32;96739.00;;;4.80
14851;BMP180;7517;48.400;11.770;2023-03-16T02:23:04;96736.00;;;4.70
14851;BMP180;7517;48.400;11.770;2023-03-16T02:25:42;96739.00;;;4.70
14851;BMP180;7517;48.400;11.770;2023-03-16T02:28:24;96731.00;;;4.70
14851;BMP180;7517;48.400;11.770;2023-03-16T02:30:55;96733.00;;;4.70
14851;BMP180;7517;48.400;11.770;2023-03-16T02:33:25;96727.00;;;4.70
14851;BMP180;7517;48.400;11.770;2023-03-16T02:35:52;96729.00;;;4.60
14851;BMP180;7517;48.400;11.770;2023-03-16T02:38:19;96727.00;;;4.60
14851;BMP180;7517;48.400;11.770;2023-03-16T02:40:57;96723.00;;;4.60
14851;BMP180;7517;48.400;11.770;2023-03-16T02:43:30;96723.00;;;4.60
14851;BMP180;7517;48.400;11.770;2023-03-16T02:46:02;96721.00;;;4.50
14851;BMP180;7517;48.400;11.770;2023-03-16T02:48:36;96714.00;;;4.50
14851;BMP180;7517;48.400;11.770;2023-03-16T02:51:08;96716.00;;;4.50
14851;BMP180;7517;48.400;11.770;2023-03-16T02:53:36;96716.00;;;4.40
14851;BMP180;7517;48.400;11.770;2023-03-16T02:56:04;96712.00;;;4.40
14851;BMP180;7517;48.400;11.770;2023-03-16T02:58:32;96710.00;;;4.40
14851;BMP180;7517;48.400;11.770;2023-03-16T03:01:01;96718.00;;;4.30
14851;BMP180;7517;48.400;11.770;2023-03-16T03:03:29;96715.00;;;4.30
14851;BMP180;7517;48.400;11.770;2023-03-16T03:05:59;96719.00;;;4.20
14851;BMP180;7517;48.400;11.770;2023-03-16T03:08:26;96710.00;;;4.20
14851;BMP180;7517;48.400;11.770;2023-03-16T03:10:54;96713.00;;;4.20
14851;BMP180;7517;48.400;11.770;2023-03-16T03:13:21;96709.00;;;4.20
14851;BMP180;7517;48.400;11.770;2023-03-16T03:15:49;96720.00;;;4.20
14851;BMP180;7517;48.400;11.770;2023-03-16T03:18:19;96715.00;;;4.20
14851;BMP180;7517;48.400;11.770;2023-03-16T03:20:46;96722.00;;;4.20
14851;BMP180;7517;48.400;11.770;2023-03-16T03:23:13;96724.00;;;4.20
14851;BMP180;7517;48.400;11.770;2023-03-16T03:25:41;96717.00;;;4.20
14851;BMP180;7517;48.400;11.770;2023-03-16T03:28:10;96716.00;;;4.20
14851;BMP180;7517;48.400;11.770;2023-03-16T03:30:37;96712.00;;;4.10
14851;BMP180;7517;48.400;11.770;2023-03-16T03:33:04;96721.00;;;4.10
14851;BMP180;7517;48.400;11.770;2023-03-16T03:35:34;96715.00;;;4.00
14851;BMP180;7517;48.400;11.770;2023-03-16T03:38:02;96711.00;;;4.00
14851;BMP180;7517;48.400;11.770;2023-03-16T03:40:29;96711.00;;;4.00
14851;BMP180;7517;48.400;11.770;2023-03-16T03:42:57;96712.00;;;4.00
14851;BMP180;7517;48.400;11.770;2023-03-16T03:45:25;96705.00;;;4.00
14851;BMP180;7517;48.400;11.770;2023-03-16T03:47:52;96704.00;;;3.90
14851;BMP180;7517;48.400;11.770;2023-03-16T03:50:21;96704.00;;;4.00
14851;BMP180;7517;48.400;11.770;2023-03-16T03:52:50;96701.00;;;4.00
14851;BMP180;7517;48.400;11.770;2023-03-16T03:55:17;96696.00;;;4.00
14851;BMP180;7517;48.400;11.770;2023-03-16T03:57:45;96694.00;;;4.00
14851;BMP180;7517;48.400;11.770;2023-03-16T04:00:13;96698.00;;;3.90
14851;BMP180;7517;48.400;11.770;2023-03-16T04:02:41;96695.00;;;3.90
14851;BMP180;7517;48.400;11.770;2023-03-16T04:05:09;96698.00;;;3.90
14851;BMP180;7517;48.400;11.770;2023-03-16T04:07:38;96698.00;;;3.90
14851;BMP180;7517;48.400;11.770;2023-03-16T04:10:09;96703.00;;;3.90
14851;BMP180;7517;48.400;11.770;2023-03-16T04:12:37;96702.00;;;3.90
14851;BMP180;7517;48.400;11.770;2023-03-16T04:15:06;96703.00;;;3.80
14851;BMP180;7517;48.400;11.770;2023-03-16T04:17:33;96693.00;;;3.80
14851;BMP180;7517;48.400;11.770;2023-03-16T04:20:01;96699.00;;;3.80
14851;BMP180;7517;48.400;11.770;2023-03-16T04:22:30;96697.00;;;3.70
14851;BMP180;7517;48.400;11.770;2023-03-16T04:24:58;96706.00;;;3.70
14851;BMP180;7517;48.400;11.770;2023-03-16T04:27:29;96704.00;;;3.70
14851;BMP180;7517;48.400;11.770;2023-03-16T04:30:01;96713.00;;;3.60
14851;BMP180;7517;48.400;11.770;2023-03-16T04:32:30;96711.00;;;3.60
14851;BMP180;7517;48.400;11.770;2023-03-16T04:34:57;96716.00;;;3.60
14851;BMP180;7517;48.400;11.770;2023-03-16T04:37:24;96713.00;;;3.60
14851;BMP180;7517;48.400;11.770;2023-03-16T04:39:52;96713.00;;;3.60
14851;BMP180;7517;48.400;11.770;2023-03-16T04:42:19;96710.00;;;3.60
14851;BMP180;7517;48.400;11.770;2023-03-16T04:44:49;96711.00;;;3.60
14851;BMP180;7517;48.400;11.770;2023-03-16T04:47:17;96709.00;;;3.60
14851;BMP180;7517;48.400;11.770;2023-03-16T04:49:46;96699.00;;;3.60
14851;BMP180;7517;48.400;11.770;2023-03-16T04:52:16;96696.00;;;3.50
14851;BMP180;7517;48.400;11.770;2023-03-16T04:54:43;96694.00;;;3.50
14851;BMP180;7517;48.400;11.770;2023-03-16T04:57:11;96701.00;;;3.50
14851;BMP180;7517;48.400;11.770;2023-03-16T04:59:38;96700.00;;;3.50
14851;BMP180;7517;48.400;11.770;2023-03-16T05:02:08;96690.00;;;3.50
14851;BMP180;7517;48.400;11.770;2023-03-16T05:04:36;96691.00;;;3.50
14851;BMP180;7517;48.400;11.770;2023-03-16T05:07:03;96689.00;;;3.50
14851;BMP180;7517;48.400;11.770;2023-03-16T05:09:32;96687.00;;;3.40
14851;BMP180;7517;48.400;11.770;2023-03-16T05:12:00;96681.00;;;3.40
14851;BMP180;7517;48.400;11.770;2023-03-16T05:14:27;96683.00;;;3.40
14851;BMP180;7517;48.400;11.770;2023-03-16T05:16:54;96678.00;;;3.40
14851;BMP180;7517;48.400;11.770;2023-03-16T05:19:23;96682.00;;;3.50
14851;BMP180;7517;48.400;11.770;2023-03-16T05:21:51;96676.00;;;3.50
14851;BMP180;7517;48.400;11.770;2023-03-16T05:24:18;96676.00;;;3.50
14851;BMP180;7517;48.400;11.770;2023-03-16T05:26:46;96675.00;;;3.50
14851;BMP180;7517;48.400;11.770;2023-03-16T05:29:14;96670.00;;;3.60
14851;BMP180;7517;48.400;11.770;2023-03-16T05:31:41;96669.00;;;3.60
14851;BMP180;7517;48.400;11.770;2023-03-16T05:34:11;96679.00;;;3.60
14851;BMP180;7517;48.400;11.770;2023-03-16T05:36:40;96685.00;;;3.60
14851;BMP180;7517;48.400;11.770;2023-03-16T05:39:10;96682.00;;;3.60
14851;BMP180;7517;48.400;11.770;2023-03-16T05:41:38;96671.00;;;3.60
14851;BMP180;7517;48.400;11.770;2023-03-16T05:44:07;96667.00;;;3.60
14851;BMP180;7517;48.400;11.770;2023-03-16T05:46:36;96672.00;;;3.60
14851;BMP180;7517;48.400;11.770;2023-03-16T05:49:03;96674.00;;;3.60
14851;BMP180;7517;48.400;11.770;2023-03-16T05:51:33;96673.00;;;3.70
14851;BMP180;7517;48.400;11.770;2023-03-16T05:54:04;96669.00;;;3.70
14851;BMP180;7517;48.400;11.770;2023-03-16T05:56:32;96673.00;;;3.70
14851;BMP180;7517;48.400;11.770;2023-03-16T05:58:59;96678.00;;;3.70
14851;BMP180;7517;48.400;11.770;2023-03-16T06:01:27;96678.00;;;3.70
14851;BMP180;7517;48.400;11.770;2023-03-16T06:03:54;96670.00;;;3.70
14851;BMP180;7517;48.400;11.770;2023-03-16T06:06:22;96680.00;;;3.80
14851;BMP180;7517;48.400;11.770;2023-03-16T06:08:49;96675.00;;;3.80
14851;BMP180;7517;48.400;11.770;2023-03-16T06:11:19;96680.00;;;3.80
14851;BMP180;7517;48.400;11.770;2023-03-16T06:13:46;96684.00;;;3.80
14851;BMP180;7517;48.400;11.770;2023-03-16T06:16:15;96675.00;;;3.90
14851;BMP180;7517;48.400;11.770;2023-03-16T06:18:43;96678.00;;;3.90
14851;BMP180;7517;48.400;11.770;2023-03-16T06:21:12;96681.00;;;3.90
14851;BMP180;7517;48.400;11.770;2023-03-16T06:23:40;96692.00;;;4.00
14851;BMP180;7517;48.400;11.770;2023-03-16T06:26:08;96691.00;;;4.00
14851;BMP180;7517;48.400;11.770;2023-03-16T06:28:37;96698.00;;;4.00
14851;BMP180;7517;48.400;11.770;2023-03-16T06:31:04;96702.00;;;4.10
14851;BMP180;7517;48.400;11.770;2023-03-16T06:33:32;96691.00;;;4.10
14851;BMP180;7517;48.400;11.770;2023-03-16T06:35:59;96701.00;;;4.10
14851;BMP180;7517;48.400;11.770;2023-03-16T06:38:26;96699.00;;;4.20
14851;BMP180;7517;48.400;11.770;2023-03-16T06:40:54;96694.00;;;4.20
14851;BMP180;7517;48.400;11.770;2023-03-16T06:43:21;96700.00;;;4.20
14851;BMP180;7517;48.400;11.770;2023-03-16T06:45:51;96699.00;;;4.30
14851;BMP180;7517;48.400;11.770;2023-03-16T06:48:18;96705.00;;;4.30
14851;BMP180;7517;48.400;11.770;2023-03-16T06:50:46;96702.00;;;4.40
14851;BMP180;7517;48.400;11.770;2023-03-16T06:53:14;96700.00;;;4.40
14851;BMP180;7517;48.400;11.770;2023-03-16T06:55:42;96705.00;;;4.50
14851;BMP180;7517;48.400;11.770;2023-03-16T06:58:09;96706.00;;;4.60
14851;BMP180;7517;48.400;11.770;2023-03-16T07:00:36;96703.00;;;4.60
14851;BMP180;7517;48.400;11.770;2023-03-16T07:03:05;96701.00;;;4.70
14851;BMP180;7517;48.400;11.770;2023-03-16T07:05:33;96694.00;;;4.70
14851;BMP180;7517;48.400;11.770;2023-03-16T07:08:00;96704.00;;;4.80
14851;BMP180;7517;48.400;11.770;2023-03-16T07:10:29;96698.00;;;4.80
14851;BMP180;7517;48.400;11.770;2023-03-16T07:12:56;96700.00;;;4.90
14851;BMP180;7517;48.400;11.770;2023-03-16T07:15:24;96697.00;;;5.00
14851;BMP180;7517;48.400;11.770;2023-03-16T07:17:52;96710.00;;;5.00
14851;BMP180;7517;48.400;11.770;2023-03-16T07:20:21;96709.00;;;5.10
14851;BMP180;7517;48.400;11.770;2023-03-16T07:22:51;96708.00;;;5.10
14851;BMP180;7517;48.400;11.770;2023-03-16T07:25:19;96703.00;;;5.20
14851;BMP180;7517;48.400;11.770;2023-03-16T07:27:46;96706.00;;;5.30
14851;BMP180;7517;48.400;11.770;2023-03-16T07:30:15;96706.00;;;5.30
14851;BMP180;7517;48.400;11.770;2023-03-16T07:32:43;96717.00;;;5.40
14851;BMP180;7517;48.400;11.770;2023-03-16T07:35:10;96714.00;;;5.50
14851;BMP180;7517;48.400;11.770;2023-03-16T07:37:39;96721.00;;;5.50
14851;BMP180;7517;48.400;11.770;2023-03-16T07:40:08;96716.00;;;5.60
14851;BMP180;7517;48.400;11.770;2023-03-16T07:42:36;96720.00;;;5.70
14851;BMP180;7517;48.400;11.770;2023-03-16T07:45:05;96719.00;;;5.80
14851;BMP180;7517;48.400;11.770;2023-03-16T07:47:33;96725.00;;;5.90
14851;BMP180;7517;48.400;11.770;2023-03-16T07:50:00;96720.00;;;6.00
14851;BMP180;7517;48.400;11.770;2023-03-16T07:52:28;96727.00;;;6.20
14851;BMP180;7517;48.400;11.770;2023-03-16T07:54:56;96729.00;;;6.30
14851;BMP180;7517;48.400;11.770;2023-03-16T07:57:24;96733.00;;;6.40
14851;BMP180;7517;48.400;11.770;2023-03-16T07:59:51;96733.00;;;6.60
14851;BMP180;7517;48.400;11.770;2023-03-16T08:02:19;96744.00;;;6.80
14851;BMP180;7517;48.400;11.770;2023-03-16T08:04:47;96751.00;;;7.00
14851;BMP180;7517;48.400;11.770;2023-03-16T08:07:15;96755.00;;;7.20
14851;BMP180;7517;48.400;11.770;2023-03-16T08:09:44;96750.00;;;7.40
14851;BMP180;7517;48.400;11.770;2023-03-16T08:12:14;96751.00;;;7.60
14851;BMP180;7517;48.400;11.770;2023-03-16T08:14:42;96755.00;;;7.80
14851;BMP180;7517;48.400;11.770;2023-03-16T08:17:11;96764.00;;;7.90
14851;BMP180;7517;48.400;11.770;2023-03-16T08:19:38;96758.00;;;8.10
14851;BMP180;7517;48.400;11.770;2023-03-16T08:22:08;96766.00;;;8.30
14851;BMP180;7517;48.400;11.770;2023-03-16T08:24:35;96770.00;;;8.40
14851;BMP180;7517;48.400;11.770;2023-03-16T08:27:03;96769.00;;;8.60
14851;BMP180;7517;48.400;11.770;2023-03-16T08:29:32;96772.00;;;8.80
14851;BMP180;7517;48.400;11.770;2023-03-16T08:32:00;96760.00;;;8.90
14851;BMP180;7517;48.400;11.770;2023-03-16T08:34:28;96761.00;;;9.10
14851;BMP180;7517;48.400;11.770;2023-03-16T08:36:56;96762.00;;;9.30
14851;BMP180;7517;48.400;11.770;2023-03-16T08:39:25;96773.00;;;9.50
14851;BMP180;7517;48.400;11.770;2023-03-16T08:41:52;96771.00;;;9.70
14851;BMP180;7517;48.400;11.770;2023-03-16T08:44:20;96768.00;;;9.90
14851;BMP180;7517;48.400;11.770;2023-03-16T08:46:50;96772.00;;;10.00
14851;BMP180;7517;48.400;11.770;2023-03-16T08:49:17;96774.00;;;10.20
14851;BMP180;7517;48.400;11.770;2023-03-16T08:51:46;96771.00;;;10.40
14851;BMP180;7517;48.400;11.770;2023-03-16T08:54:13;96768.00;;;10.50
14851;BMP180;7517;48.400;11.770;2023-03-16T08:56:40;96769.00;;;10.70
14851;BMP180;7517;48.400;11.770;2023-03-16T08:59:08;96766.00;;;10.90
14851;BMP180;7517;48.400;11.770;2023-03-16T09:01:35;96767.00;;;11.10
14851;BMP180;7517;48.400;11.770;2023-03-16T09:04:05;96770.00;;;11.30
14851;BMP180;7517;48.400;11.770;2023-03-16T09:06:33;96777.00;;;11.40
14851;BMP180;7517;48.400;11.770;2023-03-16T09:09:00;96764.00;;;11.60
14851;BMP180;7517;48.400;11.770;2023-03-16T09:11:29;96765.00;;;11.80
14851;BMP180;7517;48.400;11.770;2023-03-16T09:13:59;96756.00;;;11.90
14851;BMP180;7517;48.400;11.770;2023-03-16T09:16:26;96757.00;;;12.10
14851;BMP180;7517;48.400;11.770;2023-03-16T09:18:56;96766.00;;;12.30
14851;BMP180;7517;48.400;11.770;2023-03-16T09:21:25;96772.00;;;12.50
14851;BMP180;7517;48.400;11.770;2023-03-16T09:23:53;96775.00;;;12.60
14851;BMP180;7517;48.400;11.770;2023-03-16T09:26:21;96780.00;;;12.70
14851;BMP180;7517;48.400;11.770;2023-03-16T09:28:49;96785.00;;;12.70
14851;BMP180;7517;48.400;11.770;2023-03-16T09:31:18;96783.00;;;12.80
14851;BMP180;7517;48.400;11.770;2023-03-16T09:33:46;96776.00;;;12.90
14851;BMP180;7517;48.400;11.770;2023-03-16T09:36:16;96778.00;;;13.00
14851;BMP180;7517;48.400;11.770;2023-03-16T09:38:45;96791.00;;;13.00
14851;BMP180;7517;48.400;11.770;2023-03-16T09:41:33;96786.00;;;13.00
14851;BMP180;7517;48.400;11.770;2023-03-16T09:44:20;96786.00;;;13.10
14851;BMP180;7517;48.400;11.770;2023-03-16T09:46:52;96783.00;;;13.10
14851;BMP180;7517;48.400;11.770;2023-03-16T09:49:33;96785.00;;;13.20
14851;BMP180;7517;48.400;11.770;2023-03-16T09:52:15;96789.00;;;13.30
14851;BMP180;7517;48.400;11.770;2023-03-16T09:55:26;96787.00;;;13.40
14851;BMP180;7517;48.400;11.770;2023-03-16T09:58:19;96792.00;;;13.60
14851;BMP180;7517;48.400;11.770;2023-03-16T10:04:37;96792.00;;;14.30
14851;BMP180;7517;48.400;11.770;2023-03-16T10:07:36;96788.00;;;14.60
14851;BMP180;7517;48.400;11.770;2023-03-16T10:10:23;96793.00;;;14.80
14851;BMP180;7517;48.400;11.770;2023-03-16T10:13:01;96795.00;;;15.00
14851;BMP180;7517;48.400;11.770;2023-03-16T10:15:34;96791.00;;;15.30
14851;BMP180;7517;48.400;11.770;2023-03-16T10:18:11;96803.00;;;15.50
14851;BMP180;7517;48.400;11.770;2023-03-16T10:20:42;96795.00;;;15.70
14851;BMP180;7517;48.400;11.770;2023-03-16T10:23:19;96798.00;;;15.80
14851;BMP180;7517;48.400;11.770;2023-03-16T10:25:51;96798.00;;;15.90
14851;BMP180;7517;48.400;11.770;2023-03-16T10:28:23;96800.00;;;16.00
14851;BMP180;7517;48.400;11.770;2023-03-16T10:30:55;96799.00;;;15.90
14851;BMP180;7517;48.400;11.770;2023-03-16T10:33:26;96799.00;;;15.90
14851;BMP180;7517;48.400;11.770;2023-03-16T10:36:00;96792.00;;;16.00
14851;BMP180;7517;48.400;11.770;2023-03-16T10:38:40;96794.00;;;16.00
14851;BMP180;7517;48.400;11.770;2023-03-16T10:41:27;96794.00;;;16.10
14851;BMP180;7517;48.400;11.770;2023-03-16T10:43:59;96789.00;;;16.10
14851;BMP180;7517;48.400;11.770;2023-03-16T10:46:37;96784.00;;;16.20
14851;BMP180;7517;48.400;11.770;2023-03-16T10:49:19;96775.00;;;16.20
14851;BMP180;7517;48.400;11.770;2023-03-16T10:51:46;96770.00;;;16.20
14851;BMP180;7517;48.400;11.770;2023-03-16T10:54:19;96762.00;;;16.30
14851;BMP180;7517;48.400;11.770;2023-03-16T10:56:49;96766.00;;;16.30
14851;BMP180;7517;48.400;11.770;2023-03-16T10:59:29;96757.00;;;16.20
14851;BMP180;7517;48.400;11.770;2023-03-16T11:02:01;96758.00;;;16.20
14851;BMP180;7517;48.400;11.770;2023-03-16T11:04:31;96758.00;;;16.00
14851;BMP180;7517;48.400;11.770;2023-03-16T11:06:59;96758.00;;;15.90
14851;BMP180;7517;48.400;11.770;2023-03-16T11:09:32;96753.00;;;15.80
14851;BMP180;7517;48.400;11.770;2023-03-16T11:12:11;96745.00;;;15.60
14851;BMP180;7517;48.400;11.770;2023-03-16T11:14:44;96736.00;;;15.40
14851;BMP180;7517;48.400;11.770;2023-03-16T11:17:16;96731.00;;;15.20
14851;BMP180;7517;48.400;11.770;2023-03-16T11:19:51;96730.00;;;15.00
14851;BMP180;7517;48.400;11.770;2023-03-16T11:22:23;96727.00;;;14.70
14851;BMP180;7517;48.400;11.770;2023-03-16T11:25:01;96730.00;;;14.40
14851;BMP180;7517;48.400;11.770;2023-03-16T11:27:38;96718.00;;;14.00
14851;BMP180;7517;48.400;11.770;2023-03-16T11:30:19;96710.00;;;13.80
14851;BMP180;7517;48.400;11.770;2023-03-16T11:32:51;96717.00;;;13.60
14851;BMP180;7517;48.400;11.770;2023-03-16T11:35:23;96711.00;;;13.40
14851;BMP180;7517;48.400;11.770;2023-03-16T11:38:10;96701.00;;;13.20
14851;BMP180;7517;48.400;11.770;2023-03-16T11:40:54;96703.00;;;13.10
14851;BMP180;7517;48.400;11.770;2023-03-16T11:43:55;96690.00;;;13.00
14851;BMP180;7517;48.400;11.770;2023-03-16T11:46:27;96691.00;;;12.90
14851;BMP180;7517;48.400;11.770;2023-03-16T11:49:19;96694.00;;;12.80
14851;BMP180;7517;48.400;11.770;2023-03-16T11:52:04;96691.00;;;12.80
14851;BMP180;7517;48.400;11.770;2023-03-16T11:54:49;96684.00;;;12.80
14851;BMP180;7517;48.400;11.770;2023-03-16T11:57:40;96687.00;;;12.80
14851;BMP180;7517;48.400;11.770;2023-03-16T12:00:26;96683.00;;;12.80
14851;BMP180;7517;48.400;11.770;2023-03-16T12:03:28;96675.00;;;12.80
14851;BMP180;7517;48.400;11.770;2023-03-16T12:06:08;96672.00;;;12.80
14851;BMP180;7517;48.400;11.770;2023-03-16T12:09:24;96675.00;;;12.80
14851;BMP180;7517;48.400;11.770;2023-03-16T12:12:04;96669.00;;;12.80
14851;BMP180;7517;48.400;11.770;2023-03-16T12:14:43;96664.00;;;12.80
14851;BMP180;7517;48.400;11.770;2023-03-16T12:17:17;96669.00;;;12.80
14851;BMP180;7517;48.400;11.770;2023-03-16T12:19:54;96661.00;;;12.80
14851;BMP180;7517;48.400;11.770;2023-03-16T12:22:28;96661.00;;;12.80
14851;BMP180;7517;48.400;11.770;2023-03-16T12:24:58;96655.00;;;12.90
14851;BMP180;7517;48.400;11.770;2023-03-16T12:27:31;96641.00;;;12.90
14851;BMP180;7517;48.400;11.770;2023-03-16T12:30:18;96634.00;;;13.00
14851;BMP180;7517;48.400;11.770;2023-03-16T12:32:57;96639.00;;;13.10
14851;BMP180;7517;48.400;11.770;2023-03-16T12:35:43;96637.00;;;13.10
14851;BMP180;7517;48.400;11.770;2023-03-16T12:38:34;96641.00;;;13.20
14851;BMP180;7517;48.400;11.770;2023-03-16T12:41:17;96639.00;;;13.20
14851;BMP180;7517;48.400;11.770;2023-03-16T12:44:03;96634.00;;;13.20
14851;BMP180;7517;48.400;11.770;2023-03-16T12:46:44;96633.00;;;13.30
14851;BMP180;7517;48.400;11.770;2023-03-16T12:49:18;96626.00;;;13.40
14851;BMP180;7517;48.400;11.770;2023-03-16T12:51:59;96629.00;;;13.40
14851;BMP180;7517;48.400;11.770;2023-03-16T12:54:29;96624.00;;;13.40
14851;BMP180;7517;48.400;11.770;2023-03-16T12:57:01;96616.00;;;13.50
14851;BMP180;7517;48.400;11.770;2023-03-16T12:59:39;96617.00;;;13.50
14851;BMP180;7517;48.400;11.770;2023-03-16T13:02:14;96618.00;;;13.60
14851;BMP180;7517;48.400;11.770;2023-03-16T13:04:47;96605.00;;;13.60
14851;BMP180;7517;48.400;11.770;2023-03-16T13:07:22;96606.00;;;13.70
14851;BMP180;7517;48.400;11.770;2023-03-16T13:09:55;96612.00;;;13.70
14851;BMP180;7517;48.400;11.770;2023-03-16T13:12:27;96607.00;;;13.70
14851;BMP180;7517;48.400;11.770;2023-03-16T13:14:55;96604.00;;;13.70
14851;BMP180;7517;48.400;11.770;2023-03-16T13:17:27;96610.00;;;13.70
14851;BMP180;7517;48.400;11.770;2023-03-16T13:20:06;96607.00;;;13.70
14851;BMP180;7517;48.400;11.770;2023-03-16T13:23:16;96598.00;;;13.80
14851;BMP180;7517;48.400;11.770;2023-03-16T13:26:03;96600.00;;;13.80
14851;BMP180;7517;48.400;11.770;2023-03-16T13:28:36;96601.00;;;13.80
14851;BMP180;7517;48.400;11.770;2023-03-16T13:31:18;96590.00;;;13.90
14851;BMP180;7517;48.400;11.770;2023-03-16T13:33:47;96595.00;;;13.90
14851;BMP180;7517;48.400;11.770;2023-03-16T13:36:15;96592.00;;;13.90
14851;BMP180;7517;48.400;11.770;2023-03-16T13:38:55;96588.00;;;13.90
14851;BMP180;7517;48.400;11.770;2023-03-16T13:41:24;96588.00;;;14.00
14851;BMP180;7517;48.400;11.770;2023-03-16T13:43:51;96592.00;;;14.00
14851;BMP180;7517;48.400;11.770;2023-03-16T13:46:26;96592.00;;;14.00
14851;BMP180;7517;48.400;11.770;2023-03-16T13:48:57;96583.00;;;14.10
14851;BMP180;7517;48.400;11.770;2023-03-16T13:51:29;96580.00;;;14.10
14851;BMP180;7517;48.400;11.770;2023-03-16T13:54:18;96583.00;;;14.10
14851;BMP180;7517;48.400;11.770;2023-03-16T13:56:47;96578.00;;;14.10
14851;BMP180;7517;48.400;11.770;2023-03-16T13:59:14;96578.00;;;14.20
14851;BMP180;7517;48.400;11.770;2023-03-16T14:01:44;96570.00;;;14.20
14851;BMP180;7517;48.400;11.770;2023-03-16T14:04:15;96566.00;;;14.20
14851;BMP180;7517;48.400;11.770;2023-03-16T14:06:53;96567.00;;;14.20
14851;BMP180;7517;48.400;11.770;2023-03-16T14:09:26;96569.00;;;14.20
14851;BMP180;7517;48.400;11.770;2023-03-16T14:11:55;96556.00;;;14.20
14851;BMP180;7517;48.400;11.770;2023-03-16T14:14:27;96562.00;;;14.20
14851;BMP180;7517;48.400;11.770;2023-03-16T14:17:09;96557.00;;;14.20
14851;BMP180;7517;48.400;11.770;2023-03-16T14:19:44;96561.00;;;14.30
14851;BMP180;7517;48.400;11.770;2023-03-16T14:22:15;96568.00;;;14.30
14851;BMP180;7517;48.400;11.770;2023-03-16T14:24:51;96566.00;;;14.30
14851;BMP180;7517;48.400;11.770;2023-03-16T14:27:27;96574.00;;;14.30
14851;BMP180;7517;48.400;11.770;2023-03-16T14:30:01;96577.00;;;14.30
14851;BMP180;7517;48.400;11.770;2023-03-16T14:32:35;96573.00;;;14.40
14851;BMP180;7517;48.400;11.770;2023-03-16T14:35:13;96573.00;;;14.40
14851;BMP180;7517;48.400;11.770;2023-03-16T14:37:42;96580.00;;;14.40
14851;BMP180;7517;48.400;11.770;2023-03-16T14:40:26;96579.00;;;14.40
14851;BMP180;7517;48.400;11.770;2023-03-16T14:42:58;96570.00;;;14.40
14851;BMP180;7517;48.400;11.770;2023-03-16T14:45:32;96566.00;;;14.50